createdAt,value
2022-10-13T00:00:21.225Z,6.60
2022-10-13T00:02:50.917Z,6.50
2022-10-13T00:05:19.244Z,6.50
2022-10-13T00:07:47.420Z,6.50
2022-10-13T00:10:15.450Z,6.50
2022-10-13T00:12:43.575Z,6.50
2022-10-13T00:15:13.897Z,6.60
2022-10-13T00:17:42.481Z,6.60
2022-10-13T00:20:12.727Z,6.60
2022-10-13T00:22:43.874Z,6.60
2022-10-13T00:25:12.012Z,6.60
2022-10-13T00:27:40.054Z,6.70
2022-10-13T00:30:08.577Z,6.60
2022-10-13T00:32:36.813Z,6.60
2022-10-13T00:35:04.957Z,6.70
2022-10-13T00:37:34.414Z,6.70
2022-10-13T00:40:02.653Z,6.80
2022-10-13T00:42:30.679Z,6.80
2022-10-13T00:45:03.803Z,6.80
2022-10-13T00:47:34.822Z,6.80
2022-10-13T00:50:03.126Z,6.80
2022-10-13T00:52:31.925Z,6.80
2022-10-13T00:55:03.059Z,6.90
2022-10-13T00:57:31.254Z,6.90
2022-10-13T01:00:00.118Z,6.90
2022-10-13T01:02:30.605Z,7.00
2022-10-13T01:05:00.562Z,7.10
2022-10-13T01:07:28.715Z,7.00
2022-10-13T01:09:56.955Z,7.10
2022-10-13T01:12:33.803Z,7.30
2022-10-13T01:15:05.590Z,7.20
2022-10-13T01:17:37.426Z,7.30
2022-10-13T01:20:21.565Z,7.30
2022-10-13T01:22:57.507Z,7.20
2022-10-13T01:25:31.809Z,7.20
2022-10-13T01:28:09.860Z,7.20
2022-10-13T01:30:46.857Z,7.10
2022-10-13T01:33:18.966Z,7.20
2022-10-13T01:35:52.058Z,7.10
2022-10-13T01:38:25.994Z,7.10
2022-10-13T01:40:57.786Z,7.10
2022-10-13T01:43:27.465Z,7.00
2022-10-13T01:46:00.129Z,7.00
2022-10-13T01:48:29.184Z,7.00
2022-10-13T01:50:59.882Z,7.00
2022-10-13T01:53:28.638Z,7.00
2022-10-13T01:55:57.649Z,7.00
2022-10-13T01:58:27.247Z,7.00
2022-10-13T02:01:03.143Z,7.00
2022-10-13T02:03:34.370Z,7.00
2022-10-13T02:06:05.554Z,7.00
2022-10-13T02:08:36.337Z,7.10
2022-10-13T02:11:09.648Z,7.10
2022-10-13T02:13:37.989Z,7.10
2022-10-13T02:16:07.914Z,7.10
2022-10-13T02:18:37.077Z,7.10
2022-10-13T02:21:08.207Z,7.10
2022-10-13T02:23:36.834Z,7.20
2022-10-13T02:26:05.054Z,7.20
2022-10-13T02:28:33.204Z,7.20
2022-10-13T02:31:01.270Z,7.20
2022-10-13T02:33:33.773Z,7.20
2022-10-13T02:36:01.835Z,7.10
2022-10-13T02:38:29.974Z,7.10
2022-10-13T02:40:58.102Z,7.10
2022-10-13T02:43:26.399Z,7.10
2022-10-13T02:45:54.414Z,7.20
2022-10-13T02:48:22.713Z,7.10
2022-10-13T02:50:52.245Z,7.10
2022-10-13T02:53:20.286Z,7.10
2022-10-13T02:55:48.594Z,7.00
2022-10-13T02:58:16.667Z,7.10
2022-10-13T03:00:44.924Z,7.10
2022-10-13T03:03:13.054Z,7.00
2022-10-13T03:05:41.263Z,7.00
2022-10-13T03:08:10.758Z,7.10
2022-10-13T03:10:38.865Z,7.00
2022-10-13T03:13:06.858Z,7.10
2022-10-13T03:15:35.029Z,7.10
2022-10-13T03:18:03.025Z,7.10
2022-10-13T03:20:31.274Z,7.10
2022-10-13T03:22:59.357Z,7.10
2022-10-13T03:25:29.457Z,7.20
2022-10-13T03:27:57.551Z,7.20
2022-10-13T03:30:26.171Z,7.20
2022-10-13T03:32:54.244Z,7.20
2022-10-13T03:35:22.390Z,7.10
2022-10-13T03:37:50.443Z,7.20
2022-10-13T03:40:18.646Z,7.20
2022-10-13T03:42:48.245Z,7.20
2022-10-13T03:45:17.392Z,7.20
2022-10-13T03:47:45.629Z,7.20
2022-10-13T03:50:13.659Z,7.20
2022-10-13T03:52:41.925Z,7.10
2022-10-13T03:55:10.082Z,7.20
2022-10-13T03:57:38.252Z,7.10
2022-10-13T04:00:10.758Z,7.20
2022-10-13T04:02:40.662Z,7.20
2022-10-13T04:05:09.122Z,7.10
2022-10-13T04:07:37.182Z,7.10
2022-10-13T04:10:10.213Z,7.10
2022-10-13T04:12:39.332Z,7.10
2022-10-13T04:15:10.057Z,7.10
2022-10-13T04:17:38.123Z,7.10
2022-10-13T04:20:06.868Z,7.00
2022-10-13T04:22:34.967Z,7.00
2022-10-13T04:25:03.211Z,7.00
2022-10-13T04:27:31.576Z,7.10
2022-10-13T04:29:59.843Z,7.10
2022-10-13T04:32:29.542Z,7.10
2022-10-13T04:34:57.582Z,7.20
2022-10-13T04:37:28.267Z,7.20
2022-10-13T04:39:56.300Z,7.10
2022-10-13T04:42:24.549Z,7.20
2022-10-13T04:44:52.564Z,7.10
2022-10-13T04:47:20.645Z,7.20
2022-10-13T04:49:50.058Z,7.20
2022-10-13T04:52:18.500Z,7.20
2022-10-13T04:54:46.799Z,7.30
2022-10-13T04:57:14.850Z,7.30
2022-10-13T04:59:43.005Z,7.30
2022-10-13T05:02:11.150Z,7.20
2022-10-13T05:04:39.417Z,7.20
2022-10-13T05:07:24.311Z,7.20
2022-10-13T05:09:52.551Z,7.30
2022-10-13T05:12:20.811Z,7.30
2022-10-13T05:14:49.074Z,7.30
2022-10-13T05:17:17.290Z,7.30
2022-10-13T05:19:45.420Z,7.30
2022-10-13T05:22:17.942Z,7.40
2022-10-13T05:24:46.278Z,7.40
2022-10-13T05:27:14.745Z,7.30
2022-10-13T05:29:42.971Z,7.40
2022-10-13T05:32:11.150Z,7.40
2022-10-13T05:34:39.191Z,7.40
2022-10-13T05:37:07.418Z,7.40
2022-10-13T05:39:39.472Z,7.40
2022-10-13T05:42:07.550Z,7.40
2022-10-13T05:44:36.369Z,7.30
2022-10-13T05:47:07.552Z,7.40
2022-10-13T05:49:39.847Z,7.40
2022-10-13T05:52:09.578Z,7.50
2022-10-13T05:54:41.040Z,7.50
2022-10-13T05:57:11.802Z,7.50
2022-10-13T05:59:41.565Z,7.50
2022-10-13T06:02:11.180Z,7.60
2022-10-13T06:04:40.650Z,7.60
2022-10-13T06:07:09.740Z,7.60
2022-10-13T06:09:40.157Z,7.60
2022-10-13T06:12:09.218Z,7.60
2022-10-13T06:14:37.489Z,7.70
2022-10-13T06:17:05.549Z,7.70
2022-10-13T06:19:33.814Z,7.80
2022-10-13T06:22:03.800Z,7.80
2022-10-13T06:24:32.014Z,7.80
2022-10-13T06:27:01.448Z,7.90
2022-10-13T06:29:29.714Z,7.90
2022-10-13T06:31:57.972Z,7.90
2022-10-13T06:34:26.210Z,7.90
2022-10-13T06:36:54.261Z,8.00
2022-10-13T06:39:22.478Z,8.00
2022-10-13T06:41:50.932Z,8.10
2022-10-13T06:44:20.437Z,8.10
2022-10-13T06:46:48.467Z,8.10
2022-10-13T06:49:16.621Z,8.10
2022-10-13T06:51:44.643Z,8.20
2022-10-13T06:54:12.797Z,8.20
2022-10-13T06:56:40.935Z,8.20
2022-10-13T06:59:09.188Z,8.10
2022-10-13T07:01:41.939Z,8.20
2022-10-13T07:04:10.317Z,8.10
2022-10-13T07:06:38.318Z,8.20
2022-10-13T07:09:08.896Z,8.20
2022-10-13T07:11:39.975Z,8.20
2022-10-13T07:14:08.203Z,8.20
2022-10-13T07:16:36.240Z,8.30
2022-10-13T07:19:05.853Z,8.30
2022-10-13T07:21:33.910Z,8.30
2022-10-13T07:24:03.226Z,8.40
2022-10-13T07:26:32.582Z,8.40
2022-10-13T07:29:00.967Z,8.50
2022-10-13T07:31:29.050Z,8.50
2022-10-13T07:33:57.700Z,8.50
2022-10-13T07:36:27.654Z,8.60
2022-10-13T07:38:55.687Z,8.60
2022-10-13T07:41:23.948Z,8.60
2022-10-13T07:43:55.370Z,8.60
2022-10-13T07:46:23.893Z,8.70
2022-10-13T07:48:52.980Z,8.80
2022-10-13T07:51:21.784Z,8.90
2022-10-13T07:53:51.271Z,8.90
2022-10-13T07:56:19.614Z,9.00
2022-10-13T07:58:48.538Z,9.00
2022-10-13T08:01:19.233Z,9.10
2022-10-13T08:03:50.228Z,9.20
2022-10-13T08:06:18.846Z,9.20
2022-10-13T08:08:46.967Z,9.30
2022-10-13T08:11:17.410Z,9.40
2022-10-13T08:13:47.875Z,9.40
2022-10-13T08:16:16.022Z,9.50
2022-10-13T08:18:44.174Z,9.50
2022-10-13T08:24:03.066Z,9.60
2022-10-13T08:26:32.725Z,9.60
2022-10-13T08:29:20.742Z,9.60
2022-10-13T08:31:50.781Z,9.60
2022-10-13T08:34:18.979Z,9.70
2022-10-13T08:36:47.491Z,9.60
2022-10-13T08:39:15.933Z,9.70
2022-10-13T08:41:45.842Z,9.70
2022-10-13T08:47:13.729Z,9.80
2022-10-13T08:49:42.452Z,9.90
2022-10-13T08:52:15.132Z,10.00
2022-10-13T08:54:43.184Z,10.00
2022-10-13T08:57:12.967Z,10.00
2022-10-13T08:59:41.115Z,10.00
2022-10-13T09:02:12.483Z,10.00
2022-10-13T09:04:42.022Z,10.00
2022-10-13T09:07:13.716Z,10.10
2022-10-13T09:09:41.798Z,10.20
2022-10-13T09:12:15.828Z,10.20
2022-10-13T09:14:44.017Z,10.30
2022-10-13T09:17:15.867Z,10.30
2022-10-13T09:19:44.000Z,10.30
2022-10-13T09:22:15.788Z,10.40
2022-10-13T09:24:45.876Z,10.40
2022-10-13T09:27:17.130Z,10.60
2022-10-13T09:29:45.863Z,10.60
2022-10-13T09:32:20.515Z,10.70
2022-10-13T09:34:48.809Z,10.70
2022-10-13T09:37:21.013Z,10.80
2022-10-13T09:40:00.538Z,10.90
2022-10-13T09:42:31.862Z,11.00
2022-10-13T09:45:01.544Z,11.00
2022-10-13T09:47:33.233Z,11.10
2022-10-13T09:50:06.561Z,11.20
2022-10-13T09:52:35.742Z,11.10
2022-10-13T09:55:04.061Z,11.10
2022-10-13T09:57:41.699Z,11.10
2022-10-13T10:00:14.720Z,11.20
2022-10-13T10:02:46.555Z,11.20
2022-10-13T10:05:22.587Z,11.20
2022-10-13T10:07:52.949Z,15.00
2022-10-13T10:10:33.401Z,11.20
2022-10-13T10:13:03.500Z,11.30
2022-10-13T10:15:34.335Z,11.30
2022-10-13T10:18:05.080Z,11.40
2022-10-13T10:20:43.082Z,11.60
2022-10-13T10:23:13.898Z,11.60
2022-10-13T10:25:43.799Z,11.70
2022-10-13T10:28:30.758Z,11.70
2022-10-13T10:31:03.003Z,11.80
2022-10-13T10:33:35.195Z,11.80
2022-10-13T10:36:08.297Z,11.80
2022-10-13T10:38:42.569Z,11.90
2022-10-13T10:41:14.570Z,11.90
2022-10-13T10:43:47.155Z,11.90
2022-10-13T10:46:19.681Z,12.10
2022-10-13T10:48:50.413Z,12.10
2022-10-13T10:51:19.671Z,12.20
2022-10-13T10:53:53.808Z,12.10
2022-10-13T10:56:28.663Z,12.20
2022-10-13T10:59:06.637Z,12.10
2022-10-13T11:01:38.605Z,12.20
2022-10-13T11:04:24.496Z,12.20
2022-10-13T11:06:52.533Z,12.10
2022-10-13T11:09:35.463Z,12.10
2022-10-13T11:12:03.525Z,12.10
2022-10-13T11:14:32.985Z,12.20
2022-10-13T11:17:12.055Z,12.10
2022-10-13T11:19:40.314Z,12.20
2022-10-13T11:22:13.582Z,12.30
2022-10-13T11:24:59.338Z,12.40
2022-10-13T11:27:29.696Z,12.40
2022-10-13T11:29:59.614Z,12.40
2022-10-13T11:32:45.209Z,12.40
2022-10-13T11:35:20.783Z,12.40
2022-10-13T11:38:05.950Z,12.30
2022-10-13T11:40:35.482Z,12.40
2022-10-13T11:43:22.122Z,12.40
2022-10-13T11:45:57.299Z,12.40
2022-10-13T11:48:40.385Z,12.40
2022-10-13T11:51:16.591Z,12.40
2022-10-13T11:53:50.030Z,12.40
2022-10-13T11:56:33.873Z,12.40
2022-10-13T11:59:01.935Z,12.40
2022-10-13T12:01:32.686Z,12.40
2022-10-13T12:04:00.737Z,12.50
2022-10-13T12:06:42.388Z,12.50
2022-10-13T12:09:18.036Z,12.50
2022-10-13T12:11:46.394Z,12.50
2022-10-13T12:14:21.737Z,12.50
2022-10-13T12:16:58.190Z,12.60
2022-10-13T12:19:27.608Z,12.60
2022-10-13T12:21:56.702Z,12.60
2022-10-13T12:24:26.057Z,12.70
2022-10-13T12:26:54.444Z,12.60
2022-10-13T12:29:25.259Z,12.60
2022-10-13T12:31:53.633Z,12.70
2022-10-13T12:34:27.867Z,12.60
2022-10-13T12:36:58.577Z,12.70
2022-10-13T12:39:27.225Z,12.60
2022-10-13T12:41:56.474Z,12.70
2022-10-13T12:44:26.082Z,12.70
2022-10-13T12:46:56.492Z,12.90
2022-10-13T12:49:26.775Z,13.10
2022-10-13T12:51:57.722Z,13.10
2022-10-13T12:54:28.045Z,13.10
2022-10-13T12:56:57.715Z,13.00
2022-10-13T12:59:29.424Z,12.80
2022-10-13T13:02:00.214Z,12.70
2022-10-13T13:04:31.815Z,12.60
2022-10-13T13:07:00.555Z,12.60
2022-10-13T13:09:29.629Z,12.60
2022-10-13T13:12:16.282Z,12.50
2022-10-13T13:14:45.597Z,12.50
2022-10-13T13:17:38.825Z,12.50
2022-10-13T13:20:21.985Z,12.50
2022-10-13T13:22:50.824Z,12.50
2022-10-13T13:25:18.915Z,12.60
2022-10-13T13:27:47.098Z,12.50
2022-10-13T13:30:16.558Z,12.60
2022-10-13T13:32:44.779Z,12.60
2022-10-13T13:35:14.975Z,12.50
2022-10-13T13:37:47.944Z,12.50
2022-10-13T13:40:16.851Z,12.50
2022-10-13T13:42:45.150Z,12.50
2022-10-13T13:45:13.634Z,12.50
2022-10-13T13:47:41.852Z,12.50
2022-10-13T13:50:15.291Z,12.50
2022-10-13T13:52:44.736Z,12.40
2022-10-13T13:55:12.999Z,12.40
2022-10-13T13:57:41.138Z,12.40
2022-10-13T14:00:09.750Z,12.40
2022-10-13T14:02:37.781Z,12.40
2022-10-13T14:05:06.237Z,12.40
2022-10-13T14:07:34.294Z,12.40
2022-10-13T14:10:04.389Z,12.40
2022-10-13T14:12:32.778Z,12.30
2022-10-13T14:15:01.023Z,12.20
2022-10-13T14:17:29.552Z,12.20
2022-10-13T14:19:57.855Z,12.20
2022-10-13T14:22:26.378Z,12.10
2022-10-13T14:24:54.853Z,12.00
2022-10-13T14:27:24.427Z,12.00
2022-10-13T14:29:52.490Z,12.00
2022-10-13T14:32:20.890Z,12.00
2022-10-13T14:34:49.343Z,12.00
2022-10-13T14:37:22.130Z,12.00
2022-10-13T14:39:51.105Z,12.00
2022-10-13T14:42:21.804Z,12.00
2022-10-13T14:44:51.353Z,12.00
2022-10-13T14:47:19.645Z,12.00
2022-10-13T14:49:47.946Z,12.00
2022-10-13T14:52:16.005Z,11.90
2022-10-13T14:54:45.187Z,11.90
2022-10-13T14:57:15.994Z,11.90
2022-10-13T14:59:44.281Z,11.80
2022-10-13T15:02:14.070Z,11.90
2022-10-13T15:04:42.313Z,11.90
2022-10-13T15:07:10.366Z,11.80
2022-10-13T15:09:52.853Z,11.80
2022-10-13T15:12:26.768Z,11.80
2022-10-13T15:14:54.880Z,11.70
2022-10-13T15:17:24.439Z,11.70
2022-10-13T15:19:52.466Z,11.70
2022-10-13T15:22:20.854Z,11.70
2022-10-13T15:24:49.399Z,11.70
2022-10-13T15:27:17.401Z,11.70
2022-10-13T15:29:45.630Z,11.60
2022-10-13T15:32:18.015Z,11.60
2022-10-13T15:34:47.783Z,11.60
2022-10-13T15:37:15.893Z,11.60
2022-10-13T15:39:44.148Z,11.50
2022-10-13T15:42:12.874Z,11.50
2022-10-13T15:45:08.177Z,11.50
2022-10-13T15:47:31.517Z,11.40
2022-10-13T15:50:01.010Z,11.40
2022-10-13T15:52:33.841Z,11.40
2022-10-13T15:55:03.101Z,11.30
2022-10-13T15:57:31.809Z,11.30
2022-10-13T15:59:59.813Z,11.30
2022-10-13T16:02:27.849Z,11.30
2022-10-13T16:04:56.797Z,11.30
2022-10-13T16:07:26.446Z,11.20
2022-10-13T16:09:54.482Z,11.20
2022-10-13T16:12:24.338Z,11.20
2022-10-13T16:14:52.639Z,11.10
2022-10-13T16:17:20.654Z,11.10
2022-10-13T16:19:48.928Z,11.10
2022-10-13T16:22:17.169Z,11.10
2022-10-13T16:24:46.691Z,11.10
2022-10-13T16:27:14.926Z,11.10
2022-10-13T16:29:42.951Z,11.00
2022-10-13T16:32:11.231Z,10.90
2022-10-13T16:34:39.270Z,10.90
2022-10-13T16:37:07.290Z,10.90
2022-10-13T16:39:39.889Z,10.90
2022-10-13T16:42:11.779Z,10.80
2022-10-13T16:44:39.933Z,10.80
2022-10-13T16:47:08.102Z,10.90
2022-10-13T16:49:37.321Z,10.80
2022-10-13T16:52:05.601Z,10.80
2022-10-13T16:54:33.755Z,10.80
2022-10-13T16:57:01.886Z,10.80
2022-10-13T16:59:31.391Z,10.80
2022-10-13T17:01:59.493Z,10.80
2022-10-13T17:04:27.554Z,10.80
2022-10-13T17:06:58.329Z,10.80
2022-10-13T17:09:26.500Z,10.80
2022-10-13T17:11:54.539Z,10.80
2022-10-13T17:14:24.406Z,10.80
2022-10-13T17:16:57.544Z,10.80
2022-10-13T17:19:26.535Z,10.80
2022-10-13T17:21:54.635Z,10.80
2022-10-13T17:24:22.863Z,10.80
2022-10-13T17:26:51.810Z,10.80
2022-10-13T17:29:19.851Z,10.80
2022-10-13T17:31:48.114Z,10.80
2022-10-13T17:34:17.721Z,10.70
2022-10-13T17:36:45.763Z,10.70
2022-10-13T17:39:14.130Z,10.70
2022-10-13T17:41:42.529Z,10.70
2022-10-13T17:44:10.845Z,10.70
2022-10-13T17:46:39.750Z,10.70
2022-10-13T17:49:08.449Z,10.70
2022-10-13T17:51:39.669Z,10.60
2022-10-13T17:54:11.582Z,10.60
2022-10-13T17:56:42.899Z,10.60
2022-10-13T17:59:11.053Z,10.60
2022-10-13T18:01:39.425Z,10.60
2022-10-13T18:04:08.836Z,10.60
2022-10-13T18:06:40.746Z,10.70
2022-10-13T18:09:10.126Z,10.60
2022-10-13T18:11:38.516Z,10.60
2022-10-13T18:14:06.867Z,10.50
2022-10-13T18:16:35.110Z,10.50
2022-10-13T18:19:03.836Z,10.50
2022-10-13T18:21:31.943Z,10.40
2022-10-13T18:24:03.419Z,10.40
2022-10-13T18:26:35.038Z,10.40
2022-10-13T18:29:08.706Z,10.40
2022-10-13T18:31:37.645Z,10.40
2022-10-13T18:34:06.573Z,10.40
2022-10-13T18:36:35.910Z,10.30
2022-10-13T18:39:07.400Z,10.30
2022-10-13T18:41:36.185Z,10.30
2022-10-13T18:44:04.770Z,10.30
2022-10-13T18:46:33.185Z,10.20
2022-10-13T18:49:01.384Z,10.30
2022-10-13T18:51:35.582Z,10.30
2022-10-13T18:54:06.628Z,10.20
2022-10-13T18:56:36.917Z,10.20
2022-10-13T18:59:05.919Z,10.20
2022-10-13T19:01:35.578Z,10.20
2022-10-13T19:04:06.959Z,10.20
2022-10-13T19:06:35.656Z,10.20
2022-10-13T19:09:06.395Z,10.10
2022-10-13T19:11:34.925Z,10.10
2022-10-13T19:14:03.352Z,10.10
2022-10-13T19:16:34.891Z,10.10
2022-10-13T19:19:06.038Z,10.10
2022-10-13T19:21:34.098Z,10.10
2022-10-13T19:24:03.814Z,10.10
2022-10-13T19:26:33.987Z,10.00
2022-10-13T19:29:03.210Z,10.00
2022-10-13T19:31:32.893Z,10.00
2022-10-13T19:34:01.294Z,10.00
2022-10-13T19:36:31.176Z,10.00
2022-10-13T19:38:59.582Z,10.00
2022-10-13T19:41:29.018Z,10.00
2022-10-13T19:43:59.147Z,10.00
2022-10-13T19:46:27.234Z,9.90
2022-10-13T19:48:55.571Z,9.90
2022-10-13T19:51:25.679Z,9.90
2022-10-13T19:53:53.766Z,9.90
2022-10-13T19:56:23.176Z,9.90
2022-10-13T19:58:52.225Z,9.90
2022-10-13T20:01:21.690Z,9.80
2022-10-13T20:03:49.904Z,9.80
2022-10-13T20:06:18.906Z,9.80
2022-10-13T20:08:47.015Z,9.80
2022-10-13T20:11:19.329Z,9.80
2022-10-13T20:13:50.419Z,9.80
2022-10-13T20:16:19.805Z,9.80
2022-10-13T20:18:51.616Z,9.80
2022-10-13T20:21:19.782Z,9.70
2022-10-13T20:23:47.886Z,9.80
2022-10-13T20:26:16.305Z,9.80
2022-10-13T20:28:45.082Z,9.80
2022-10-13T20:31:13.852Z,9.80
2022-10-13T20:33:42.730Z,9.80
2022-10-13T20:36:14.169Z,9.80
2022-10-13T20:38:42.782Z,9.90
2022-10-13T20:41:11.872Z,9.80
2022-10-13T20:43:39.918Z,9.90
2022-10-13T20:46:09.352Z,9.90
2022-10-13T20:49:05.228Z,9.90
2022-10-13T20:51:28.572Z,9.90
2022-10-13T20:53:56.797Z,9.90
2022-10-13T20:56:25.671Z,9.90
2022-10-13T20:58:53.798Z,9.90
2022-10-13T21:01:22.595Z,9.90
2022-10-13T21:03:52.787Z,9.90
2022-10-13T21:06:21.164Z,9.90
2022-10-13T21:08:50.818Z,9.90
2022-10-13T21:11:20.219Z,10.00
2022-10-13T21:13:48.807Z,9.90
2022-10-13T21:16:18.121Z,10.00
2022-10-13T21:18:50.842Z,10.00
2022-10-13T21:21:20.002Z,10.00
2022-10-13T21:23:51.882Z,10.00
2022-10-13T21:26:21.872Z,10.00
2022-10-13T21:28:50.882Z,10.00
2022-10-13T21:31:20.598Z,10.00
2022-10-13T21:33:48.944Z,10.00
2022-10-13T21:36:18.187Z,10.00
2022-10-13T21:38:47.310Z,10.00
2022-10-13T21:41:17.000Z,10.00
2022-10-13T21:43:45.051Z,10.00
2022-10-13T21:46:14.333Z,9.90
2022-10-13T21:48:42.651Z,9.90
2022-10-13T21:51:14.394Z,9.90
2022-10-13T21:53:42.796Z,9.90
2022-10-13T21:56:11.882Z,9.90
2022-10-13T21:58:41.588Z,9.90
2022-10-13T22:01:09.727Z,10.00
2022-10-13T22:03:38.126Z,10.00
2022-10-13T22:06:13.338Z,10.00
2022-10-13T22:08:46.341Z,10.00
2022-10-13T22:11:14.527Z,10.00
2022-10-13T22:13:44.014Z,10.00
2022-10-13T22:16:13.066Z,10.00
2022-10-13T22:18:41.343Z,10.00
2022-10-13T22:21:10.874Z,9.90
2022-10-13T22:23:38.951Z,10.00
2022-10-13T22:26:07.022Z,10.00
2022-10-13T22:28:37.445Z,10.00
2022-10-13T22:31:10.317Z,10.00
2022-10-13T22:33:39.627Z,10.00
2022-10-13T22:36:12.262Z,10.00
2022-10-13T22:38:40.389Z,10.00
2022-10-13T22:41:11.022Z,9.90
2022-10-13T22:43:39.060Z,9.90
2022-10-13T22:46:08.635Z,9.90
2022-10-13T22:48:40.544Z,9.90
2022-10-13T22:51:09.070Z,9.90
2022-10-13T22:53:37.458Z,9.90
2022-10-13T22:56:06.453Z,9.90
2022-10-13T22:58:34.638Z,9.90
2022-10-13T23:01:05.912Z,9.90
2022-10-13T23:03:35.427Z,9.80
2022-10-13T23:06:04.023Z,9.90
2022-10-13T23:08:32.604Z,9.90
2022-10-13T23:11:00.711Z,9.80
2022-10-13T23:13:28.806Z,9.80
2022-10-13T23:16:01.411Z,9.80
2022-10-13T23:18:29.587Z,9.80
2022-10-13T23:20:59.034Z,9.70
2022-10-13T23:23:27.256Z,9.70
2022-10-13T23:25:55.250Z,9.70
2022-10-13T23:28:23.364Z,9.70
2022-10-13T23:30:51.562Z,9.70
2022-10-13T23:33:19.598Z,9.60
2022-10-13T23:35:54.787Z,9.60
2022-10-13T23:38:24.289Z,9.60
2022-10-13T23:40:52.792Z,9.50
2022-10-13T23:43:21.119Z,9.50
2022-10-13T23:45:50.373Z,9.60
2022-10-13T23:48:18.463Z,9.50
2022-10-13T23:50:46.600Z,9.50
2022-10-13T23:53:14.675Z,9.50
2022-10-13T23:55:44.111Z,9.50
2022-10-13T23:58:12.142Z,9.50
